createdAt,value
2019-05-05T00:01:14.865Z,2.70
2019-05-05T00:03:47.800Z,2.70
2019-05-05T00:06:16.320Z,2.80
2019-05-05T00:08:45.653Z,2.80
2019-05-05T00:11:32.206Z,2.80
2019-05-05T00:14:18.388Z,2.80
2019-05-05T00:16:57.758Z,2.80
2019-05-05T00:19:32.690Z,2.80
2019-05-05T00:21:56.154Z,2.80
2019-05-05T00:24:24.545Z,2.80
2019-05-05T00:26:55.154Z,2.80
2019-05-05T00:29:25.214Z,2.80
2019-05-05T00:31:54.687Z,2.70
2019-05-05T00:34:24.491Z,2.70
2019-05-05T00:36:55.035Z,2.70
2019-05-05T00:39:25.335Z,2.70
2019-05-05T00:41:55.342Z,2.70
2019-05-05T00:44:24.745Z,2.70
2019-05-05T00:46:57.777Z,2.70
2019-05-05T00:49:45.511Z,2.70
2019-05-05T00:52:05.071Z,2.70
2019-05-05T00:54:34.695Z,2.60
2019-05-05T00:57:04.452Z,2.60
2019-05-05T00:59:34.756Z,2.50
2019-05-05T01:02:04.789Z,2.50
2019-05-05T01:04:40.576Z,2.50
2019-05-05T01:07:08.958Z,2.50
2019-05-05T01:09:38.187Z,2.50
2019-05-05T01:12:07.533Z,2.50
2019-05-05T01:14:35.995Z,2.60
2019-05-05T01:17:05.280Z,2.60
2019-05-05T01:19:34.946Z,2.50
2019-05-05T01:22:04.938Z,2.50
2019-05-05T01:24:34.191Z,2.60
2019-05-05T01:27:04.271Z,2.60
2019-05-05T01:29:34.613Z,2.70
2019-05-05T01:32:05.091Z,2.70
2019-05-05T01:34:38.087Z,2.60
2019-05-05T01:37:08.110Z,2.50
2019-05-05T01:39:38.189Z,2.50
2019-05-05T01:42:08.221Z,2.50
2019-05-05T01:44:36.677Z,2.50
2019-05-05T01:47:05.464Z,2.60
2019-05-05T01:49:34.501Z,2.60
2019-05-05T01:52:04.332Z,2.70
2019-05-05T01:54:35.150Z,2.70
2019-05-05T01:57:05.265Z,2.70
2019-05-05T01:59:35.227Z,2.70
2019-05-05T02:02:04.296Z,2.70
2019-05-05T02:04:34.265Z,2.60
2019-05-05T02:07:05.301Z,2.60
2019-05-05T02:09:35.390Z,2.60
2019-05-05T02:12:05.195Z,2.60
2019-05-05T02:14:35.227Z,2.60
2019-05-05T02:17:05.031Z,2.70
2019-05-05T02:19:35.046Z,2.60
2019-05-05T02:22:05.321Z,2.70
2019-05-05T02:24:35.346Z,2.70
2019-05-05T02:27:05.141Z,2.60
2019-05-05T02:29:38.105Z,2.60
2019-05-05T02:32:26.066Z,2.60
2019-05-05T02:34:58.700Z,2.50
2019-05-05T02:37:27.153Z,2.40
2019-05-05T02:39:59.003Z,2.30
2019-05-05T02:42:26.498Z,2.20
2019-05-05T02:44:54.908Z,2.30
2019-05-05T02:47:34.873Z,2.30
2019-05-05T02:50:05.569Z,2.30
2019-05-05T02:52:34.652Z,2.30
2019-05-05T02:55:04.208Z,2.20
2019-05-05T02:57:34.459Z,2.20
2019-05-05T03:00:10.115Z,2.30
2019-05-05T03:02:38.575Z,2.20
2019-05-05T03:05:07.028Z,2.20
2019-05-05T03:07:35.396Z,2.20
2019-05-05T03:10:04.760Z,2.20
2019-05-05T03:12:34.629Z,2.20
2019-05-05T03:15:04.221Z,2.20
2019-05-05T03:17:34.114Z,2.30
2019-05-05T03:20:04.155Z,2.30
2019-05-05T03:22:34.069Z,2.40
2019-05-05T03:25:04.678Z,2.40
2019-05-05T03:27:34.137Z,2.40
2019-05-05T03:30:04.958Z,2.50
2019-05-05T03:32:36.036Z,2.60
2019-05-05T03:35:04.258Z,2.70
2019-05-05T03:37:34.391Z,2.60
2019-05-05T03:40:04.561Z,2.60
2019-05-05T03:42:34.674Z,2.70
2019-05-05T03:45:11.045Z,2.70
2019-05-05T03:47:39.506Z,2.80
2019-05-05T03:50:07.889Z,2.90
2019-05-05T03:52:36.392Z,3.00
2019-05-05T03:55:06.963Z,3.00
2019-05-05T03:57:35.401Z,3.10
2019-05-05T04:00:05.526Z,3.10
2019-05-05T04:02:44.661Z,3.10
2019-05-05T04:05:14.659Z,3.10
2019-05-05T04:07:44.040Z,3.20
2019-05-05T04:10:14.064Z,3.20
2019-05-05T04:12:43.482Z,3.30
2019-05-05T04:15:14.049Z,3.30
2019-05-05T04:17:46.405Z,3.40
2019-05-05T04:20:18.883Z,3.50
2019-05-05T04:22:47.341Z,3.60
2019-05-05T04:25:15.802Z,3.60
2019-05-05T04:27:44.524Z,3.70
2019-05-05T04:30:14.276Z,3.80
2019-05-05T04:32:43.934Z,3.90
2019-05-05T04:35:14.036Z,4.00
2019-05-05T04:37:43.780Z,4.10
2019-05-05T04:40:14.605Z,4.20
2019-05-05T04:42:44.048Z,4.30
2019-05-05T04:45:14.624Z,4.30
2019-05-05T04:47:53.950Z,4.40
2019-05-05T04:50:34.525Z,4.60
2019-05-05T04:53:04.756Z,4.70
2019-05-05T04:55:33.773Z,4.90
2019-05-05T04:58:02.185Z,4.90
2019-05-05T05:00:30.582Z,5.00
2019-05-05T05:03:04.482Z,5.10
2019-05-05T05:05:35.305Z,5.20
2019-05-05T05:08:03.868Z,5.20
2019-05-05T05:10:34.446Z,5.30
2019-05-05T05:13:04.489Z,5.50
2019-05-05T05:15:34.023Z,5.60
2019-05-05T05:18:04.320Z,5.70
2019-05-05T05:20:33.952Z,5.80
2019-05-05T05:23:03.660Z,5.80
2019-05-05T05:25:34.460Z,5.80
2019-05-05T05:28:04.216Z,5.80
2019-05-05T05:30:34.483Z,5.90
2019-05-05T05:33:04.353Z,6.00
2019-05-05T05:35:33.569Z,6.00
2019-05-05T05:38:04.410Z,6.00
2019-05-05T05:40:34.266Z,6.20
2019-05-05T05:43:04.812Z,6.30
2019-05-05T05:45:35.113Z,6.30
2019-05-05T05:48:14.576Z,6.40
2019-05-05T05:50:44.728Z,6.60
2019-05-05T05:53:13.948Z,6.60
2019-05-05T05:55:44.645Z,6.60
2019-05-05T05:58:14.106Z,6.50
2019-05-05T06:00:44.302Z,6.40
2019-05-05T06:03:14.139Z,6.60
2019-05-05T06:05:43.603Z,6.70
2019-05-05T06:08:13.922Z,6.90
2019-05-05T06:10:44.324Z,6.80
2019-05-05T06:13:15.259Z,6.90
2019-05-05T06:15:44.341Z,7.00
2019-05-05T06:18:13.765Z,7.10
2019-05-05T06:20:44.591Z,7.10
2019-05-05T06:23:14.699Z,7.30
2019-05-05T06:25:44.475Z,7.40
2019-05-05T06:28:14.539Z,7.50
2019-05-05T06:30:44.317Z,7.60
2019-05-05T06:33:13.729Z,7.90
2019-05-05T06:35:44.126Z,8.20
2019-05-05T06:38:13.659Z,8.20
2019-05-05T06:40:46.747Z,8.30
2019-05-05T06:43:32.115Z,8.50
2019-05-05T06:46:03.959Z,8.70
2019-05-05T06:48:34.223Z,8.50
2019-05-05T06:51:03.975Z,8.20
2019-05-05T06:53:34.024Z,8.00
2019-05-05T06:56:04.099Z,8.20
2019-05-05T06:58:34.575Z,8.50
2019-05-05T07:01:03.597Z,9.10
2019-05-05T07:03:33.673Z,9.00
2019-05-05T07:06:04.086Z,9.30
2019-05-05T07:08:34.484Z,9.70
2019-05-05T07:11:04.097Z,10.20
2019-05-05T07:13:33.922Z,10.50
2019-05-05T07:16:04.616Z,10.30
2019-05-05T07:18:34.084Z,10.70
2019-05-05T07:21:03.638Z,10.40
2019-05-05T07:23:34.122Z,10.00
2019-05-05T07:26:04.179Z,9.90
2019-05-05T07:28:34.179Z,10.10
2019-05-05T07:31:04.465Z,9.90
2019-05-05T07:33:34.669Z,8.90
2019-05-05T07:36:06.127Z,8.60
2019-05-05T07:38:34.621Z,9.00
2019-05-05T07:41:03.655Z,9.20
2019-05-05T07:43:34.364Z,9.20
2019-05-05T07:46:03.920Z,9.30
2019-05-05T07:48:33.598Z,9.90
2019-05-05T07:51:05.111Z,10.40
2019-05-05T07:53:33.521Z,11.00
2019-05-05T07:56:03.910Z,10.60
2019-05-05T07:58:32.081Z,10.10
2019-05-05T08:01:00.582Z,10.30
2019-05-05T08:03:28.978Z,9.60
2019-05-05T08:05:57.414Z,9.80
2019-05-05T08:08:26.710Z,10.10
2019-05-05T08:10:55.174Z,10.40
2019-05-05T08:13:24.357Z,10.70
2019-05-05T08:15:59.823Z,11.40
2019-05-05T08:18:28.887Z,12.20
2019-05-05T08:21:04.849Z,12.80
2019-05-05T08:23:40.733Z,13.30
2019-05-05T08:26:10.798Z,13.40
2019-05-05T08:28:40.885Z,13.40
2019-05-05T08:31:14.451Z,13.10
2019-05-05T08:33:44.202Z,13.30
2019-05-05T08:36:14.639Z,14.10
2019-05-05T08:38:44.119Z,14.10
2019-05-05T08:41:13.851Z,14.00
2019-05-05T08:43:44.055Z,14.00
2019-05-05T08:46:14.333Z,14.40
2019-05-05T08:48:44.750Z,14.30
2019-05-05T08:51:14.099Z,13.20
2019-05-05T08:53:47.849Z,12.70
2019-05-05T08:56:14.616Z,12.90
2019-05-05T08:58:43.760Z,13.60
2019-05-05T09:01:14.762Z,14.20
2019-05-05T09:03:44.231Z,13.90
2019-05-05T09:06:13.785Z,13.90
2019-05-05T09:08:44.066Z,13.80
2019-05-05T09:11:13.992Z,13.10
2019-05-05T09:13:44.574Z,13.40
2019-05-05T09:16:14.436Z,13.30
2019-05-05T09:18:59.320Z,12.30
2019-05-05T09:21:27.856Z,11.30
2019-05-05T09:24:01.700Z,10.90
2019-05-05T09:26:46.041Z,11.20
2019-05-05T09:29:32.204Z,12.40
2019-05-05T09:32:00.797Z,13.70
2019-05-05T09:34:29.259Z,14.20
2019-05-05T09:36:58.972Z,13.80
2019-05-05T09:39:27.514Z,13.40
2019-05-05T09:41:56.032Z,13.10
2019-05-05T09:44:28.245Z,13.00
2019-05-05T09:46:56.773Z,12.80
2019-05-05T09:49:25.149Z,12.60
2019-05-05T09:51:54.482Z,13.00
2019-05-05T09:54:24.300Z,14.10
2019-05-05T09:56:53.815Z,16.00
2019-05-05T09:59:24.024Z,17.30
2019-05-05T10:01:53.833Z,16.90
2019-05-05T10:04:24.316Z,15.40
2019-05-05T10:06:52.878Z,15.50
2019-05-05T10:09:21.406Z,16.30
2019-05-05T10:11:49.873Z,15.90
2019-05-05T10:14:18.388Z,14.40
2019-05-05T10:16:46.866Z,13.90
2019-05-05T10:19:15.254Z,14.50
2019-05-05T10:21:44.419Z,14.80
2019-05-05T10:24:30.680Z,15.10
2019-05-05T10:26:58.745Z,15.90
2019-05-05T10:29:27.322Z,15.50
2019-05-05T10:31:55.844Z,15.30
2019-05-05T10:34:24.381Z,15.20
2019-05-05T10:36:53.597Z,14.90
2019-05-05T10:39:24.130Z,15.40
2019-05-05T10:41:54.689Z,16.20
2019-05-05T10:44:22.683Z,16.90
2019-05-05T10:46:51.209Z,17.00
2019-05-05T10:49:19.589Z,16.20
2019-05-05T10:51:47.984Z,16.80
2019-05-05T10:54:16.367Z,17.10
2019-05-05T10:56:44.837Z,17.20
2019-05-05T10:59:13.285Z,15.90
2019-05-05T11:01:41.745Z,14.40
2019-05-05T11:04:10.202Z,12.80
2019-05-05T11:06:38.694Z,12.50
2019-05-05T11:09:08.161Z,12.10
2019-05-05T11:11:36.673Z,12.00
2019-05-05T11:14:05.209Z,11.90
2019-05-05T11:16:33.665Z,12.30
2019-05-05T11:19:04.195Z,12.20
2019-05-05T11:21:34.081Z,12.00
2019-05-05T11:24:02.273Z,11.70
2019-05-05T11:26:30.733Z,11.80
2019-05-05T11:28:59.124Z,12.20
2019-05-05T11:31:27.593Z,14.10
2019-05-05T11:33:57.621Z,16.30
2019-05-05T11:36:30.633Z,17.10
2019-05-05T11:38:59.094Z,17.60
2019-05-05T11:41:27.478Z,18.70
2019-05-05T11:43:55.933Z,19.90
2019-05-05T11:46:24.837Z,19.30
2019-05-05T11:48:54.400Z,18.40
2019-05-05T11:51:24.995Z,16.80
2019-05-05T11:53:53.996Z,16.00
2019-05-05T11:56:22.592Z,16.30
2019-05-05T11:58:50.977Z,17.60
2019-05-05T12:01:19.506Z,17.60
2019-05-05T12:03:47.963Z,16.80
2019-05-05T12:06:16.481Z,16.20
2019-05-05T12:08:45.828Z,15.70
2019-05-05T12:11:15.050Z,16.20
2019-05-05T12:13:43.965Z,15.10
2019-05-05T12:16:14.017Z,14.00
2019-05-05T12:18:44.215Z,13.00
2019-05-05T12:21:13.973Z,12.70
2019-05-05T12:23:44.409Z,12.00
2019-05-05T12:26:14.371Z,11.40
2019-05-05T12:28:44.386Z,11.00
2019-05-05T12:31:26.077Z,10.60
2019-05-05T12:33:54.914Z,10.30
2019-05-05T12:36:23.764Z,9.70
2019-05-05T12:38:54.415Z,9.40
2019-05-05T12:41:23.848Z,9.50
2019-05-05T12:43:54.608Z,10.40
2019-05-05T12:46:39.469Z,12.20
2019-05-05T12:49:09.496Z,12.90
2019-05-05T12:51:37.937Z,13.20
2019-05-05T12:54:06.312Z,13.10
2019-05-05T12:56:34.777Z,12.80
2019-05-05T12:59:04.800Z,12.30
2019-05-05T13:01:34.906Z,11.60
2019-05-05T13:04:03.637Z,11.40
2019-05-05T13:06:34.374Z,12.40
2019-05-05T13:09:02.307Z,13.20
2019-05-05T13:11:30.697Z,13.80
2019-05-05T13:13:59.233Z,13.50
2019-05-05T13:16:27.765Z,12.10
2019-05-05T13:18:56.204Z,11.60
2019-05-05T13:21:44.060Z,11.10
2019-05-05T13:24:16.404Z,10.70
2019-05-05T13:26:58.857Z,10.40
2019-05-05T13:29:27.297Z,10.90
2019-05-05T13:31:55.834Z,11.30
2019-05-05T13:34:24.280Z,11.30
2019-05-05T13:36:52.732Z,11.60
2019-05-05T13:39:21.280Z,11.70
2019-05-05T13:41:49.741Z,11.30
2019-05-05T13:44:19.777Z,10.70
2019-05-05T13:46:48.153Z,10.10
2019-05-05T13:49:18.253Z,9.90
2019-05-05T13:51:46.697Z,10.20
2019-05-05T13:54:15.084Z,10.40
2019-05-05T13:56:44.155Z,10.80
2019-05-05T13:59:14.087Z,10.80
2019-05-05T14:01:44.701Z,10.20
2019-05-05T14:04:12.919Z,10.10
2019-05-05T14:06:41.309Z,9.50
2019-05-05T14:09:09.897Z,9.20
2019-05-05T14:11:38.363Z,8.90
2019-05-05T14:14:06.883Z,8.90
2019-05-05T14:16:35.253Z,9.00
2019-05-05T14:19:04.489Z,8.80
2019-05-05T14:21:33.957Z,8.60
2019-05-05T14:24:14.329Z,8.70
2019-05-05T14:26:43.110Z,8.80
2019-05-05T14:29:14.652Z,8.80
2019-05-05T14:31:44.528Z,9.00
2019-05-05T14:34:14.573Z,8.80
2019-05-05T14:37:04.939Z,8.80
2019-05-05T14:39:34.128Z,8.80
2019-05-05T14:42:04.462Z,8.70
2019-05-05T14:44:34.322Z,8.60
2019-05-05T14:47:02.834Z,8.50
2019-05-05T14:49:31.281Z,8.50
2019-05-05T14:51:59.666Z,8.40
2019-05-05T14:54:28.109Z,8.50
2019-05-05T14:56:56.641Z,8.40
2019-05-05T14:59:25.025Z,8.30
2019-05-05T15:01:53.553Z,8.20
2019-05-05T15:04:23.890Z,8.30
2019-05-05T15:06:54.410Z,8.20
2019-05-05T15:09:33.674Z,7.90
2019-05-05T15:12:03.903Z,8.00
2019-05-05T15:14:32.388Z,7.80
2019-05-05T15:17:00.849Z,7.70
2019-05-05T15:19:29.364Z,7.60
2019-05-05T15:21:57.779Z,7.30
2019-05-05T15:24:26.134Z,7.20
2019-05-05T15:26:55.179Z,7.10
2019-05-05T15:29:25.173Z,7.00
2019-05-05T15:31:53.988Z,6.90
2019-05-05T15:34:24.069Z,7.00
2019-05-05T15:36:54.444Z,7.00
2019-05-05T15:39:24.417Z,6.90
2019-05-05T15:41:54.221Z,6.80
2019-05-05T15:44:24.071Z,6.80
2019-05-05T15:46:57.345Z,7.00
2019-05-05T15:49:23.406Z,7.10
2019-05-05T15:51:53.813Z,7.30
2019-05-05T15:54:23.594Z,7.40
2019-05-05T15:57:03.016Z,7.30
2019-05-05T15:59:23.909Z,7.20
2019-05-05T16:01:54.764Z,7.00
2019-05-05T16:04:23.587Z,6.90
2019-05-05T16:06:54.007Z,6.80
2019-05-05T16:09:22.365Z,6.80
2019-05-05T16:11:50.865Z,6.70
2019-05-05T16:14:19.703Z,6.70
2019-05-05T16:16:49.793Z,6.50
2019-05-05T16:19:24.361Z,6.50
2019-05-05T16:21:54.426Z,6.60
2019-05-05T16:24:24.756Z,6.70
2019-05-05T16:26:55.236Z,6.70
2019-05-05T16:29:23.764Z,6.60
2019-05-05T16:31:53.644Z,6.50
2019-05-05T16:34:23.555Z,6.50
2019-05-05T16:36:54.472Z,6.60
2019-05-05T16:39:22.016Z,6.60
2019-05-05T16:41:50.475Z,6.70
2019-05-05T16:44:18.833Z,6.60
2019-05-05T16:46:47.217Z,6.70
2019-05-05T16:49:15.678Z,6.70
2019-05-05T16:51:48.831Z,6.70
2019-05-05T16:54:18.844Z,6.80
2019-05-05T16:56:47.468Z,6.90
2019-05-05T16:59:16.523Z,6.90
2019-05-05T17:01:45.254Z,7.00
2019-05-05T17:04:14.251Z,7.00
2019-05-05T17:06:45.469Z,6.90
2019-05-05T17:09:14.921Z,6.90
2019-05-05T17:11:44.624Z,6.80
2019-05-05T17:14:20.735Z,6.80
2019-05-05T17:16:50.837Z,6.80
2019-05-05T17:19:26.948Z,6.80
2019-05-05T17:22:04.000Z,6.80
2019-05-05T17:24:34.358Z,6.80
2019-05-05T17:27:03.586Z,6.80
2019-05-05T17:29:32.108Z,6.80
2019-05-05T17:32:00.701Z,6.80
2019-05-05T17:34:29.229Z,6.90
2019-05-05T17:36:57.692Z,6.80
2019-05-05T17:39:27.720Z,6.70
2019-05-05T17:41:57.752Z,6.70
2019-05-05T17:44:30.700Z,6.80
2019-05-05T17:47:00.820Z,6.80
2019-05-05T17:49:33.551Z,6.90
2019-05-05T17:52:15.702Z,6.80
2019-05-05T17:54:45.721Z,6.80
2019-05-05T17:57:14.304Z,6.70
2019-05-05T17:59:44.158Z,6.60
2019-05-05T18:02:12.733Z,6.50
2019-05-05T18:04:41.385Z,6.40
2019-05-05T18:07:11.400Z,6.40
2019-05-05T18:09:56.800Z,6.40
2019-05-05T18:12:26.826Z,6.40
2019-05-05T18:14:58.218Z,6.40
2019-05-05T18:17:26.927Z,6.40
2019-05-05T18:19:55.304Z,6.40
2019-05-05T18:22:24.626Z,6.50
2019-05-05T18:24:53.994Z,6.50
2019-05-05T18:27:23.700Z,6.60
2019-05-05T18:29:54.253Z,6.70
2019-05-05T18:32:23.581Z,6.70
2019-05-05T18:34:54.358Z,6.60
2019-05-05T18:37:24.205Z,6.60
2019-05-05T18:39:54.622Z,6.50
2019-05-05T18:42:24.688Z,6.50
2019-05-05T18:44:55.035Z,6.40
2019-05-05T18:47:25.109Z,6.30
2019-05-05T18:49:54.086Z,6.20
2019-05-05T18:52:24.500Z,6.10
2019-05-05T18:54:54.464Z,6.00
2019-05-05T18:57:24.671Z,5.90
2019-05-05T18:59:54.218Z,5.80
2019-05-05T19:02:35.687Z,5.70
2019-05-05T19:05:10.877Z,5.60
2019-05-05T19:07:54.441Z,5.50
2019-05-05T19:10:11.242Z,5.40
2019-05-05T19:12:39.652Z,5.30
2019-05-05T19:15:08.311Z,5.20
2019-05-05T19:17:36.673Z,5.60
2019-05-05T19:20:08.029Z,5.40
2019-05-05T19:22:36.421Z,5.20
2019-05-05T19:25:15.169Z,5.10
2019-05-05T19:27:45.138Z,5.00
2019-05-05T19:30:14.922Z,4.90
2019-05-05T19:32:43.724Z,4.90
2019-05-05T19:35:12.256Z,4.90
2019-05-05T19:37:40.640Z,4.90
2019-05-05T19:40:09.197Z,4.90
2019-05-05T19:42:37.711Z,4.70
2019-05-05T19:45:06.927Z,4.70
2019-05-05T19:47:35.388Z,4.60
2019-05-05T19:50:07.936Z,4.60
2019-05-05T19:52:36.621Z,4.50
2019-05-05T19:55:06.013Z,4.40
2019-05-05T19:57:36.144Z,4.20
2019-05-05T20:00:05.663Z,4.10
2019-05-05T20:02:34.211Z,3.90
2019-05-05T20:05:04.300Z,3.90
2019-05-05T20:07:32.902Z,3.80
2019-05-05T20:10:01.288Z,3.80
2019-05-05T20:12:29.800Z,3.90
2019-05-05T20:14:59.121Z,3.80
2019-05-05T20:17:34.676Z,3.70
2019-05-05T20:20:04.577Z,3.80
2019-05-05T20:22:34.794Z,3.90
2019-05-05T20:25:05.099Z,3.80
2019-05-05T20:27:34.353Z,3.70
2019-05-05T20:30:06.617Z,3.70
2019-05-05T20:32:56.241Z,3.60
2019-05-05T20:35:26.024Z,3.60
2019-05-05T20:38:04.946Z,3.60
2019-05-05T20:40:35.108Z,3.70
2019-05-05T20:43:04.063Z,3.80
2019-05-05T20:45:34.636Z,3.70
2019-05-05T20:48:04.521Z,3.60
2019-05-05T20:50:34.297Z,3.60
2019-05-05T20:53:04.882Z,3.40
2019-05-05T20:55:33.933Z,3.50
2019-05-05T20:58:04.488Z,3.40
2019-05-05T21:00:34.563Z,3.40
2019-05-05T21:03:04.656Z,3.40
2019-05-05T21:05:34.327Z,3.30
2019-05-05T21:08:04.804Z,3.40
2019-05-05T21:10:34.741Z,3.50
2019-05-05T21:13:03.736Z,3.60
2019-05-05T21:15:34.071Z,3.70
2019-05-05T21:18:04.991Z,3.70
2019-05-05T21:20:34.667Z,3.70
2019-05-05T21:23:04.872Z,3.50
2019-05-05T21:25:41.009Z,3.40
2019-05-05T21:28:09.385Z,3.30
2019-05-05T21:30:37.981Z,3.20
2019-05-05T21:33:06.377Z,3.20
2019-05-05T21:35:35.052Z,3.20
2019-05-05T21:38:04.717Z,3.20
2019-05-05T21:40:34.585Z,3.10
2019-05-05T21:43:04.986Z,3.10
2019-05-05T21:45:34.667Z,3.00
2019-05-05T21:48:04.333Z,2.90
2019-05-05T21:50:37.616Z,2.80
2019-05-05T21:53:19.814Z,2.70
2019-05-05T21:55:52.469Z,2.70
2019-05-05T21:58:39.140Z,2.70
2019-05-05T22:01:09.549Z,2.60
2019-05-05T22:03:38.963Z,2.60
2019-05-05T22:06:07.474Z,2.50
2019-05-05T22:08:36.031Z,2.40
2019-05-05T22:11:04.946Z,2.40
2019-05-05T22:13:36.234Z,2.30
2019-05-05T22:16:04.084Z,2.30
2019-05-05T22:18:32.861Z,2.40
2019-05-05T22:21:19.324Z,2.40
2019-05-05T22:23:49.477Z,2.40
2019-05-05T22:26:18.073Z,2.40
2019-05-05T22:28:46.662Z,2.30
2019-05-05T22:31:15.266Z,2.20
2019-05-05T22:33:44.746Z,2.20
2019-05-05T22:36:14.047Z,2.20
2019-05-05T22:38:44.595Z,2.30
2019-05-05T22:41:13.298Z,2.40
2019-05-05T22:43:44.265Z,2.30
2019-05-05T22:46:14.188Z,2.20
2019-05-05T22:48:44.048Z,2.10
2019-05-05T22:51:14.405Z,2.10
2019-05-05T22:53:44.100Z,2.10
2019-05-05T22:56:14.675Z,2.00
2019-05-05T22:58:43.923Z,1.90
2019-05-05T23:01:13.619Z,1.90
2019-05-05T23:03:52.589Z,2.00
2019-05-05T23:06:24.625Z,2.00
2019-05-05T23:08:54.603Z,2.00
2019-05-05T23:11:23.976Z,2.00
2019-05-05T23:13:54.160Z,2.00
2019-05-05T23:16:27.061Z,2.00
2019-05-05T23:18:55.661Z,2.10
2019-05-05T23:21:37.873Z,2.10
2019-05-05T23:24:08.033Z,2.10
2019-05-05T23:26:43.626Z,2.10
2019-05-05T23:29:11.573Z,2.10
2019-05-05T23:31:40.152Z,2.10
2019-05-05T23:34:08.755Z,2.10
2019-05-05T23:36:37.342Z,2.20
2019-05-05T23:39:06.927Z,2.20
2019-05-05T23:41:36.412Z,2.20
2019-05-05T23:44:05.409Z,2.20
2019-05-05T23:46:34.855Z,2.10
2019-05-05T23:49:04.323Z,2.00
2019-05-05T23:51:34.666Z,2.00
2019-05-05T23:54:04.298Z,2.00
2019-05-05T23:56:34.951Z,1.90
2019-05-05T23:59:04.224Z,1.80
